Grey Cloud Island, Minnesota
Current Conditions -  °F | °C
As of 3:10 AM on Wednesday 22 Oct 2014 (Local Time) from KSGS Reporting Station
Clear Clear  
Wind Chill: 39°   Ceiling: Unl
Heat Index: 44°   Visibility: 10mi
Dew Point: 37°   Wind: 7mph
Humidity: 77%   Direction: 150°SSE
Pressure: 30.2"   Gusts: NA
Location:  44.8338°N, 92.9932°W
Report Text: KSGS 220810Z AUTO 15006KT 10SM CLR 06/03 A3020 RMK AO2 T00640026
Loading
Personal Weather Stations






























Interactive Weather Map
Tropical Storm Tracking
New forecast layout! Learn more

10-Day Weather Forecast

Advertisements
Track Severe Weather on mobile